sensor_id;sensor_type;location;lat;lon;timestamp;pressure;altitude;pressure_sealevel;temperature;humidity
11114;BME280;5610;52.154;9.198;2023-02-19T00:02:07;100635.88;;;10.80;100.00
11114;BME280;5610;52.154;9.198;2023-02-19T00:04:52;100632.91;;;10.84;100.00
11114;BME280;5610;52.154;9.198;2023-02-19T00:07:38;100617.97;;;10.82;100.00
11114;BME280;5610;52.154;9.198;2023-02-19T00:10:23;100620.44;;;10.70;100.00
11114;BME280;5610;52.154;9.198;2023-02-19T00:13:10;100621.69;;;10.79;100.00
11114;BME280;5610;52.154;9.198;2023-02-19T00:15:56;100613.03;;;10.76;100.00
11114;BME280;5610;52.154;9.198;2023-02-19T00:18:43;100603.59;;;10.70;100.00
11114;BME280;5610;52.154;9.198;2023-02-19T00:21:28;100600.19;;;10.68;100.00
11114;BME280;5610;52.154;9.198;2023-02-19T00:24:14;100602.63;;;10.71;100.00
11114;BME280;5610;52.154;9.198;2023-02-19T00:26:59;100598.94;;;10.73;100.00
11114;BME280;5610;52.154;9.198;2023-02-19T00:29:46;100582.38;;;10.54;100.00
11114;BME280;5610;52.154;9.198;2023-02-19T00:32:32;100581.16;;;10.60;100.00
11114;BME280;5610;52.154;9.198;2023-02-19T00:35:18;100571.63;;;10.56;100.00
11114;BME280;5610;52.154;9.198;2023-02-19T00:38:04;100550.69;;;10.64;100.00
11114;BME280;5610;52.154;9.198;2023-02-19T00:40:49;100561.25;;;10.65;100.00
11114;BME280;5610;52.154;9.198;2023-02-19T00:43:34;100555.66;;;10.56;100.00
11114;BME280;5610;52.154;9.198;2023-02-19T00:46:23;100558.97;;;10.59;100.00
11114;BME280;5610;52.154;9.198;2023-02-19T00:49:14;100570.97;;;10.52;100.00
11114;BME280;5610;52.154;9.198;2023-02-19T00:51:59;100562.28;;;10.63;100.00
11114;BME280;5610;52.154;9.198;2023-02-19T00:54:44;100559.38;;;10.53;100.00
11114;BME280;5610;52.154;9.198;2023-02-19T00:57:30;100556.00;;;10.64;100.00
11114;BME280;5610;52.154;9.198;2023-02-19T01:00:15;100558.75;;;10.77;100.00
11114;BME280;5610;52.154;9.198;2023-02-19T01:03:02;100547.47;;;10.73;100.00
11114;BME280;5610;52.154;9.198;2023-02-19T01:05:47;100552.69;;;10.75;100.00
11114;BME280;5610;52.154;9.198;2023-02-19T01:08:33;100555.44;;;10.73;100.00
11114;BME280;5610;52.154;9.198;2023-02-19T01:11:19;100547.34;;;10.75;100.00
11114;BME280;5610;52.154;9.198;2023-02-19T01:14:04;100554.78;;;10.69;100.00
11114;BME280;5610;52.154;9.198;2023-02-19T01:16:49;100562.50;;;10.60;100.00
11114;BME280;5610;52.154;9.198;2023-02-19T01:19:36;100558.97;;;10.59;100.00
11114;BME280;5610;52.154;9.198;2023-02-19T01:22:21;100558.63;;;10.37;100.00
11114;BME280;5610;52.154;9.198;2023-02-19T01:25:07;100560.50;;;10.35;100.00
11114;BME280;5610;52.154;9.198;2023-02-19T01:27:52;100564.88;;;10.36;100.00
11114;BME280;5610;52.154;9.198;2023-02-19T01:30:37;100549.28;;;10.44;100.00
11114;BME280;5610;52.154;9.198;2023-02-19T01:33:23;100558.53;;;10.38;100.00
11114;BME280;5610;52.154;9.198;2023-02-19T01:36:09;100555.00;;;10.52;100.00
11114;BME280;5610;52.154;9.198;2023-02-19T01:38:55;100559.00;;;10.31;100.00
11114;BME280;5610;52.154;9.198;2023-02-19T01:41:40;100565.78;;;10.21;100.00
11114;BME280;5610;52.154;9.198;2023-02-19T01:48:05;100558.41;;;10.40;100.00
11114;BME280;5610;52.154;9.198;2023-02-19T01:50:56;100551.97;;;10.44;100.00
11114;BME280;5610;52.154;9.198;2023-02-19T01:53:46;100547.38;;;10.46;100.00
11114;BME280;5610;52.154;9.198;2023-02-19T01:56:36;100537.69;;;10.45;100.00
11114;BME280;5610;52.154;9.198;2023-02-19T01:59:23;100538.81;;;10.55;100.00
11114;BME280;5610;52.154;9.198;2023-02-19T02:02:09;100527.19;;;10.56;100.00
11114;BME280;5610;52.154;9.198;2023-02-19T02:04:54;100543.28;;;10.40;100.00
11114;BME280;5610;52.154;9.198;2023-02-19T02:07:40;100535.03;;;10.45;100.00
11114;BME280;5610;52.154;9.198;2023-02-19T02:10:45;100537.22;;;10.38;100.00
11114;BME280;5610;52.154;9.198;2023-02-19T02:13:32;100527.50;;;10.37;100.00
11114;BME280;5610;52.154;9.198;2023-02-19T02:16:22;100532.75;;;10.39;100.00
11114;BME280;5610;52.154;9.198;2023-02-19T02:19:23;100532.94;;;10.50;100.00
11114;BME280;5610;52.154;9.198;2023-02-19T02:22:15;100533.84;;;10.49;100.00
11114;BME280;5610;52.154;9.198;2023-02-19T02:31:38;100529.13;;;10.40;100.00
11114;BME280;5610;52.154;9.198;2023-02-19T02:34:29;100525.81;;;10.36;100.00
11114;BME280;5610;52.154;9.198;2023-02-19T02:37:18;100527.78;;;10.33;100.00
11114;BME280;5610;52.154;9.198;2023-02-19T02:40:06;100527.69;;;10.34;100.00
11114;BME280;5610;52.154;9.198;2023-02-19T02:42:55;100526.66;;;10.37;100.00
11114;BME280;5610;52.154;9.198;2023-02-19T02:45:42;100536.84;;;10.30;100.00
11114;BME280;5610;52.154;9.198;2023-02-19T02:48:35;100527.50;;;10.37;100.00
11114;BME280;5610;52.154;9.198;2023-02-19T02:51:25;100529.31;;;10.51;100.00
11114;BME280;5610;52.154;9.198;2023-02-19T02:54:22;100522.72;;;10.42;100.00
11114;BME280;5610;52.154;9.198;2023-02-19T02:57:28;100523.31;;;10.48;100.00
11114;BME280;5610;52.154;9.198;2023-02-19T03:00:15;100529.78;;;10.58;100.00
11114;BME280;5610;52.154;9.198;2023-02-19T03:03:00;100528.03;;;10.57;100.00
11114;BME280;5610;52.154;9.198;2023-02-19T03:05:48;100522.06;;;10.53;100.00
11114;BME280;5610;52.154;9.198;2023-02-19T03:08:39;100530.91;;;10.54;100.00
11114;BME280;5610;52.154;9.198;2023-02-19T03:11:28;100522.91;;;10.68;100.00
11114;BME280;5610;52.154;9.198;2023-02-19T03:14:36;100528.13;;;10.69;100.00
11114;BME280;5610;52.154;9.198;2023-02-19T03:17:43;100522.63;;;10.72;100.00
11114;BME280;5610;52.154;9.198;2023-02-19T03:20:53;100536.13;;;10.55;100.00
11114;BME280;5610;52.154;9.198;2023-02-19T03:23:41;100535.75;;;10.61;100.00
11114;BME280;5610;52.154;9.198;2023-02-19T03:26:45;100533.47;;;10.55;100.00
11114;BME280;5610;52.154;9.198;2023-02-19T03:29:38;100531.88;;;10.53;100.00
11114;BME280;5610;52.154;9.198;2023-02-19T03:32:29;100528.72;;;10.60;100.00
11114;BME280;5610;52.154;9.198;2023-02-19T03:35:19;100529.09;;;10.68;100.00
11114;BME280;5610;52.154;9.198;2023-02-19T03:38:12;100536.59;;;10.76;100.00
11114;BME280;5610;52.154;9.198;2023-02-19T03:41:08;100543.97;;;10.58;100.00
11114;BME280;5610;52.154;9.198;2023-02-19T03:44:04;100532.72;;;10.53;100.00
11114;BME280;5610;52.154;9.198;2023-02-19T03:46:54;100540.50;;;10.56;100.00
11114;BME280;5610;52.154;9.198;2023-02-19T03:49:44;100544.13;;;10.55;100.00
11114;BME280;5610;52.154;9.198;2023-02-19T03:52:38;100538.16;;;10.52;100.00
11114;BME280;5610;52.154;9.198;2023-02-19T03:55:31;100536.16;;;10.41;100.00
11114;BME280;5610;52.154;9.198;2023-02-19T03:58:24;100537.59;;;10.32;100.00
11114;BME280;5610;52.154;9.198;2023-02-19T04:01:16;100545.09;;;10.40;100.00
11114;BME280;5610;52.154;9.198;2023-02-19T04:04:07;100545.66;;;10.45;100.00
11114;BME280;5610;52.154;9.198;2023-02-19T04:06:55;100556.31;;;10.45;100.00
11114;BME280;5610;52.154;9.198;2023-02-19T04:09:45;100554.16;;;10.37;100.00
11114;BME280;5610;52.154;9.198;2023-02-19T04:12:39;100556.03;;;10.35;100.00
11114;BME280;5610;52.154;9.198;2023-02-19T04:15:29;100556.50;;;10.42;100.00
11114;BME280;5610;52.154;9.198;2023-02-19T04:18:17;100566.03;;;10.32;100.00
11114;BME280;5610;52.154;9.198;2023-02-19T04:21:04;100571.94;;;10.23;100.00
11114;BME280;5610;52.154;9.198;2023-02-19T04:23:51;100566.78;;;10.34;100.00
11114;BME280;5610;52.154;9.198;2023-02-19T04:26:36;100567.94;;;10.44;100.00
11114;BME280;5610;52.154;9.198;2023-02-19T04:29:23;100567.63;;;10.34;100.00
11114;BME280;5610;52.154;9.198;2023-02-19T04:32:09;100580.19;;;10.32;100.00
11114;BME280;5610;52.154;9.198;2023-02-19T04:34:54;100585.28;;;10.21;100.00
11114;BME280;5610;52.154;9.198;2023-02-19T04:37:40;100580.81;;;10.22;100.00
11114;BME280;5610;52.154;9.198;2023-02-19T04:40:25;100586.13;;;10.22;100.00
11114;BME280;5610;52.154;9.198;2023-02-19T04:43:11;100592.41;;;10.21;100.00
11114;BME280;5610;52.154;9.198;2023-02-19T04:45:59;100603.44;;;10.14;100.00
11114;BME280;5610;52.154;9.198;2023-02-19T04:48:45;100590.38;;;10.26;100.00
11114;BME280;5610;52.154;9.198;2023-02-19T04:51:30;100597.84;;;10.19;100.00
11114;BME280;5610;52.154;9.198;2023-02-19T04:54:16;100603.69;;;10.26;100.00
11114;BME280;5610;52.154;9.198;2023-02-19T04:57:02;100602.63;;;10.28;100.00
11114;BME280;5610;52.154;9.198;2023-02-19T04:59:47;100615.69;;;10.33;100.00
11114;BME280;5610;52.154;9.198;2023-02-19T05:02:34;100594.66;;;10.42;100.00
11114;BME280;5610;52.154;9.198;2023-02-19T05:05:20;100602.47;;;10.31;100.00
11114;BME280;5610;52.154;9.198;2023-02-19T05:08:05;100612.91;;;10.49;100.00
11114;BME280;5610;52.154;9.198;2023-02-19T05:10:50;100609.41;;;10.34;100.00
11114;BME280;5610;52.154;9.198;2023-02-19T05:13:36;100618.94;;;10.38;100.00
11114;BME280;5610;52.154;9.198;2023-02-19T05:16:22;100609.13;;;10.38;100.00
11114;BME280;5610;52.154;9.198;2023-02-19T05:19:09;100650.00;;;10.23;100.00
11114;BME280;5610;52.154;9.198;2023-02-19T05:21:55;100658.63;;;9.97;100.00
11114;BME280;5610;52.154;9.198;2023-02-19T05:24:40;100669.78;;;9.73;100.00
11114;BME280;5610;52.154;9.198;2023-02-19T05:27:26;100695.94;;;9.65;100.00
11114;BME280;5610;52.154;9.198;2023-02-19T05:30:11;100706.34;;;9.38;100.00
11114;BME280;5610;52.154;9.198;2023-02-19T05:32:56;100708.31;;;9.50;100.00
11114;BME280;5610;52.154;9.198;2023-02-19T05:35:45;100726.41;;;9.28;100.00
11114;BME280;5610;52.154;9.198;2023-02-19T05:38:30;100738.31;;;9.21;100.00
11114;BME280;5610;52.154;9.198;2023-02-19T05:41:18;100743.47;;;9.24;100.00
11114;BME280;5610;52.154;9.198;2023-02-19T05:44:04;100754.25;;;9.21;100.00
11114;BME280;5610;52.154;9.198;2023-02-19T05:46:49;100759.22;;;9.11;100.00
11114;BME280;5610;52.154;9.198;2023-02-19T05:49:34;100784.56;;;9.01;100.00
11114;BME280;5610;52.154;9.198;2023-02-19T05:52:21;100791.84;;;8.80;100.00
11114;BME280;5610;52.154;9.198;2023-02-19T05:55:07;100799.22;;;8.75;100.00
11114;BME280;5610;52.154;9.198;2023-02-19T05:57:52;100809.84;;;8.58;100.00
11114;BME280;5610;52.154;9.198;2023-02-19T06:00:37;100820.53;;;8.56;100.00
11114;BME280;5610;52.154;9.198;2023-02-19T06:03:23;100816.09;;;8.57;100.00
11114;BME280;5610;52.154;9.198;2023-02-19T06:06:09;100825.13;;;8.35;100.00
11114;BME280;5610;52.154;9.198;2023-02-19T06:08:58;100822.16;;;8.41;100.00
11114;BME280;5610;52.154;9.198;2023-02-19T06:11:43;100831.63;;;8.47;100.00
11114;BME280;5610;52.154;9.198;2023-02-19T06:14:29;100834.22;;;8.48;100.00
11114;BME280;5610;52.154;9.198;2023-02-19T06:17:15;100843.13;;;8.47;100.00
11114;BME280;5610;52.154;9.198;2023-02-19T06:20:00;100850.53;;;8.41;100.00
11114;BME280;5610;52.154;9.198;2023-02-19T06:22:48;100862.03;;;8.04;100.00
11114;BME280;5610;52.154;9.198;2023-02-19T06:25:35;100859.59;;;7.80;100.00
11114;BME280;5610;52.154;9.198;2023-02-19T06:28:20;100868.28;;;7.84;100.00
11114;BME280;5610;52.154;9.198;2023-02-19T06:31:06;100878.88;;;8.03;100.00
11114;BME280;5610;52.154;9.198;2023-02-19T06:33:52;100880.94;;;7.96;100.00
11114;BME280;5610;52.154;9.198;2023-02-19T06:36:38;100886.31;;;7.94;100.00
11114;BME280;5610;52.154;9.198;2023-02-19T06:39:23;100889.63;;;7.99;100.00
11114;BME280;5610;52.154;9.198;2023-02-19T06:42:10;100900.03;;;7.85;100.00
11114;BME280;5610;52.154;9.198;2023-02-19T06:44:55;100902.41;;;7.91;100.00
11114;BME280;5610;52.154;9.198;2023-02-19T06:47:40;100903.38;;;7.89;100.00
11114;BME280;5610;52.154;9.198;2023-02-19T06:50:26;100915.50;;;7.94;100.00
11114;BME280;5610;52.154;9.198;2023-02-19T06:53:11;100925.81;;;7.63;100.00
11114;BME280;5610;52.154;9.198;2023-02-19T06:55:57;100924.13;;;7.60;100.00
11114;BME280;5610;52.154;9.198;2023-02-19T06:58:43;100939.78;;;7.66;100.00
11114;BME280;5610;52.154;9.198;2023-02-19T07:01:29;100945.91;;;7.68;100.00
11114;BME280;5610;52.154;9.198;2023-02-19T07:04:15;100959.69;;;7.56;100.00
11114;BME280;5610;52.154;9.198;2023-02-19T07:07:00;100976.28;;;7.61;100.00
11114;BME280;5610;52.154;9.198;2023-02-19T07:09:46;100986.28;;;7.55;100.00
11114;BME280;5610;52.154;9.198;2023-02-19T07:12:31;100994.69;;;7.44;100.00
11114;BME280;5610;52.154;9.198;2023-02-19T07:15:18;100996.50;;;7.64;100.00
11114;BME280;5610;52.154;9.198;2023-02-19T07:18:03;101003.50;;;7.65;100.00
11114;BME280;5610;52.154;9.198;2023-02-19T07:20:50;101013.97;;;7.68;100.00
11114;BME280;5610;52.154;9.198;2023-02-19T07:23:35;101024.59;;;7.68;100.00
11114;BME280;5610;52.154;9.198;2023-02-19T07:26:21;101031.03;;;7.62;100.00
11114;BME280;5610;52.154;9.198;2023-02-19T07:29:08;101041.16;;;7.73;100.00
11114;BME280;5610;52.154;9.198;2023-02-19T07:31:54;101049.66;;;7.61;100.00
11114;BME280;5610;52.154;9.198;2023-02-19T07:34:40;101049.00;;;7.56;100.00
11114;BME280;5610;52.154;9.198;2023-02-19T07:37:25;101055.16;;;7.56;100.00
11114;BME280;5610;52.154;9.198;2023-02-19T07:40:10;101067.06;;;7.46;100.00
11114;BME280;5610;52.154;9.198;2023-02-19T07:42:58;101069.88;;;7.43;100.00
11114;BME280;5610;52.154;9.198;2023-02-19T07:45:43;101085.47;;;7.29;100.00
11114;BME280;5610;52.154;9.198;2023-02-19T07:48:29;101081.00;;;7.51;100.00
11114;BME280;5610;52.154;9.198;2023-02-19T07:51:17;101092.63;;;7.49;100.00
11114;BME280;5610;52.154;9.198;2023-02-19T07:54:03;101097.19;;;7.65;100.00
11114;BME280;5610;52.154;9.198;2023-02-19T07:56:48;101112.41;;;7.62;100.00
11114;BME280;5610;52.154;9.198;2023-02-19T07:59:33;101121.78;;;7.49;100.00
11114;BME280;5610;52.154;9.198;2023-02-19T08:02:19;101130.13;;;7.60;100.00
11114;BME280;5610;52.154;9.198;2023-02-19T08:05:24;101125.16;;;7.52;100.00
11114;BME280;5610;52.154;9.198;2023-02-19T08:08:12;101131.28;;;7.75;100.00
11114;BME280;5610;52.154;9.198;2023-02-19T08:11:01;101147.41;;;7.70;100.00
11114;BME280;5610;52.154;9.198;2023-02-19T08:14:05;101145.66;;;7.91;100.00
11114;BME280;5610;52.154;9.198;2023-02-19T08:16:51;101144.84;;;7.89;100.00
11114;BME280;5610;52.154;9.198;2023-02-19T08:19:36;101158.53;;;8.00;100.00
11114;BME280;5610;52.154;9.198;2023-02-19T08:22:23;101153.81;;;8.07;100.00
11114;BME280;5610;52.154;9.198;2023-02-19T08:25:08;101164.09;;;8.14;100.00
11114;BME280;5610;52.154;9.198;2023-02-19T08:27:54;101169.59;;;8.10;100.00
11114;BME280;5610;52.154;9.198;2023-02-19T08:30:41;101178.13;;;8.18;100.00
11114;BME280;5610;52.154;9.198;2023-02-19T08:33:29;101163.94;;;8.17;100.00
11114;BME280;5610;52.154;9.198;2023-02-19T08:36:14;101184.38;;;8.37;100.00
11114;BME280;5610;52.154;9.198;2023-02-19T08:39:01;101186.06;;;8.59;100.00
11114;BME280;5610;52.154;9.198;2023-02-19T08:41:46;101183.31;;;8.80;100.00
11114;BME280;5610;52.154;9.198;2023-02-19T08:44:32;101191.59;;;8.93;100.00
11114;BME280;5610;52.154;9.198;2023-02-19T08:47:17;101197.72;;;8.95;100.00
11114;BME280;5610;52.154;9.198;2023-02-19T08:50:03;101206.81;;;9.08;100.00
11114;BME280;5610;52.154;9.198;2023-02-19T08:52:48;101208.19;;;9.36;100.00
11114;BME280;5610;52.154;9.198;2023-02-19T08:55:36;101196.31;;;9.62;100.00
11114;BME280;5610;52.154;9.198;2023-02-19T08:58:22;101201.81;;;9.76;100.00
11114;BME280;5610;52.154;9.198;2023-02-19T09:01:09;101202.84;;;9.91;100.00
11114;BME280;5610;52.154;9.198;2023-02-19T09:03:54;101212.03;;;10.03;100.00
11114;BME280;5610;52.154;9.198;2023-02-19T09:06:40;101214.97;;;10.33;100.00
11114;BME280;5610;52.154;9.198;2023-02-19T09:09:25;101211.19;;;10.54;100.00
11114;BME280;5610;52.154;9.198;2023-02-19T09:12:12;101211.25;;;10.70;100.00
11114;BME280;5610;52.154;9.198;2023-02-19T09:14:57;101212.41;;;10.82;100.00
11114;BME280;5610;52.154;9.198;2023-02-19T09:17:42;101217.09;;;10.94;100.00
11114;BME280;5610;52.154;9.198;2023-02-19T09:20:27;101227.88;;;11.55;100.00
11114;BME280;5610;52.154;9.198;2023-02-19T09:23:13;101232.47;;;12.01;100.00
11114;BME280;5610;52.154;9.198;2023-02-19T09:25:59;101254.59;;;12.33;100.00
11114;BME280;5610;52.154;9.198;2023-02-19T09:28:47;101258.56;;;12.42;100.00
11114;BME280;5610;52.154;9.198;2023-02-19T09:31:33;101256.41;;;12.32;100.00
11114;BME280;5610;52.154;9.198;2023-02-19T09:34:18;101247.19;;;12.08;100.00
11114;BME280;5610;52.154;9.198;2023-02-19T09:37:03;101249.25;;;12.03;100.00
11114;BME280;5610;52.154;9.198;2023-02-19T09:39:49;101259.09;;;11.87;100.00
11114;BME280;5610;52.154;9.198;2023-02-19T09:42:34;101270.22;;;12.25;100.00
11114;BME280;5610;52.154;9.198;2023-02-19T09:45:23;101264.91;;;13.28;100.00
11114;BME280;5610;52.154;9.198;2023-02-19T09:48:10;101265.38;;;14.29;92.48
11114;BME280;5610;52.154;9.198;2023-02-19T09:50:58;101271.81;;;14.27;88.17
11114;BME280;5610;52.154;9.198;2023-02-19T09:53:46;101280.72;;;14.00;86.11
11114;BME280;5610;52.154;9.198;2023-02-19T09:56:34;101280.41;;;13.78;84.46
11114;BME280;5610;52.154;9.198;2023-02-19T09:59:21;101293.94;;;13.48;90.83
11114;BME280;5610;52.154;9.198;2023-02-19T10:02:13;101306.72;;;13.00;91.79
11114;BME280;5610;52.154;9.198;2023-02-19T10:04:59;101316.50;;;13.58;91.21
11114;BME280;5610;52.154;9.198;2023-02-19T10:07:49;101312.28;;;14.37;88.77
11114;BME280;5610;52.154;9.198;2023-02-19T10:10:36;101317.47;;;15.05;84.10
11114;BME280;5610;52.154;9.198;2023-02-19T10:13:23;101325.19;;;15.48;80.53
11114;BME280;5610;52.154;9.198;2023-02-19T10:16:15;101329.72;;;15.47;75.80
11114;BME280;5610;52.154;9.198;2023-02-19T10:19:05;101340.22;;;15.50;74.92
11114;BME280;5610;52.154;9.198;2023-02-19T10:21:50;101349.38;;;15.60;74.94
11114;BME280;5610;52.154;9.198;2023-02-19T10:24:35;101354.63;;;15.87;71.11
11114;BME280;5610;52.154;9.198;2023-02-19T10:27:21;101359.34;;;15.84;71.59
11114;BME280;5610;52.154;9.198;2023-02-19T10:30:17;101359.72;;;15.67;69.77
11114;BME280;5610;52.154;9.198;2023-02-19T10:33:11;101370.22;;;15.82;68.44
11114;BME280;5610;52.154;9.198;2023-02-19T10:36:01;101370.03;;;15.73;70.67
11114;BME280;5610;52.154;9.198;2023-02-19T10:38:47;101372.34;;;15.90;67.30
11114;BME280;5610;52.154;9.198;2023-02-19T10:41:33;101373.66;;;16.69;65.16
11114;BME280;5610;52.154;9.198;2023-02-19T10:44:25;101367.69;;;18.89;57.56
11114;BME280;5610;52.154;9.198;2023-02-19T10:47:16;101371.28;;;21.01;50.57
11114;BME280;5610;52.154;9.198;2023-02-19T10:50:02;101372.31;;;23.54;46.49
11114;BME280;5610;52.154;9.198;2023-02-19T10:52:52;101369.03;;;25.02;41.97
11114;BME280;5610;52.154;9.198;2023-02-19T10:55:38;101360.66;;;25.44;41.38
11114;BME280;5610;52.154;9.198;2023-02-19T10:58:25;101347.78;;;27.31;39.00
11114;BME280;5610;52.154;9.198;2023-02-19T11:01:14;101350.97;;;27.72;36.35
11114;BME280;5610;52.154;9.198;2023-02-19T11:04:14;101339.00;;;26.98;36.57
11114;BME280;5610;52.154;9.198;2023-02-19T11:07:06;101351.13;;;24.66;38.38
11114;BME280;5610;52.154;9.198;2023-02-19T11:09:53;101351.22;;;22.05;42.62
11114;BME280;5610;52.154;9.198;2023-02-19T11:12:38;101362.88;;;20.06;46.43
11114;BME280;5610;52.154;9.198;2023-02-19T11:15:26;101359.81;;;19.80;48.46
11114;BME280;5610;52.154;9.198;2023-02-19T11:18:23;101366.94;;;20.40;46.92
11114;BME280;5610;52.154;9.198;2023-02-19T11:21:24;101375.72;;;20.13;47.25
11114;BME280;5610;52.154;9.198;2023-02-19T11:24:29;101385.66;;;19.00;48.96
11114;BME280;5610;52.154;9.198;2023-02-19T11:27:20;101390.47;;;19.59;48.68
11114;BME280;5610;52.154;9.198;2023-02-19T11:33:21;101405.88;;;17.63;51.46
11114;BME280;5610;52.154;9.198;2023-02-19T11:36:25;101409.00;;;17.23;53.09
11114;BME280;5610;52.154;9.198;2023-02-19T11:39:19;101400.97;;;18.79;51.54
11114;BME280;5610;52.154;9.198;2023-02-19T11:42:23;101388.75;;;22.19;44.36
11114;BME280;5610;52.154;9.198;2023-02-19T11:45:21;101383.31;;;25.61;37.61
11114;BME280;5610;52.154;9.198;2023-02-19T11:48:37;101379.66;;;28.78;34.37
11114;BME280;5610;52.154;9.198;2023-02-19T11:54:46;101387.94;;;24.79;37.63
11114;BME280;5610;52.154;9.198;2023-02-19T11:57:40;101391.31;;;21.93;41.85
11114;BME280;5610;52.154;9.198;2023-02-19T12:00:28;101386.38;;;20.05;44.64
11114;BME280;5610;52.154;9.198;2023-02-19T12:03:40;101388.88;;;19.36;45.53
11114;BME280;5610;52.154;9.198;2023-02-19T12:06:31;101391.09;;;20.03;46.49
11114;BME280;5610;52.154;9.198;2023-02-19T12:09:35;101383.47;;;22.63;41.21
11114;BME280;5610;52.154;9.198;2023-02-19T12:12:40;101385.50;;;21.79;42.91
11114;BME280;5610;52.154;9.198;2023-02-19T12:15:37;101376.84;;;19.70;45.57
11114;BME280;5610;52.154;9.198;2023-02-19T12:18:52;101385.97;;;17.77;47.96
11114;BME280;5610;52.154;9.198;2023-02-19T12:21:50;101372.81;;;16.44;52.47
11114;BME280;5610;52.154;9.198;2023-02-19T12:24:53;101374.31;;;15.24;55.24
11114;BME280;5610;52.154;9.198;2023-02-19T12:27:57;101389.09;;;14.65;57.84
11114;BME280;5610;52.154;9.198;2023-02-19T12:31:07;101388.38;;;14.75;59.37
11114;BME280;5610;52.154;9.198;2023-02-19T12:34:03;101391.75;;;16.67;54.79
11114;BME280;5610;52.154;9.198;2023-02-19T12:37:01;101400.72;;;18.82;49.82
11114;BME280;5610;52.154;9.198;2023-02-19T12:39:56;101404.44;;;22.89;42.24
11114;BME280;5610;52.154;9.198;2023-02-19T12:42:54;101398.94;;;24.36;39.34
11114;BME280;5610;52.154;9.198;2023-02-19T12:45:50;101396.72;;;26.26;35.87
11114;BME280;5610;52.154;9.198;2023-02-19T12:48:43;101389.44;;;23.46;39.34
11114;BME280;5610;52.154;9.198;2023-02-19T12:51:37;101394.06;;;21.37;42.31
11114;BME280;5610;52.154;9.198;2023-02-19T12:54:26;101398.16;;;19.94;44.15
11114;BME280;5610;52.154;9.198;2023-02-19T12:57:14;101397.94;;;18.61;46.67
11114;BME280;5610;52.154;9.198;2023-02-19T13:00:08;101396.34;;;18.15;49.23
11114;BME280;5610;52.154;9.198;2023-02-19T13:02:59;101410.69;;;17.82;50.16
11114;BME280;5610;52.154;9.198;2023-02-19T13:05:50;101418.28;;;16.84;51.35
11114;BME280;5610;52.154;9.198;2023-02-19T13:08:40;101422.88;;;15.85;53.36
11114;BME280;5610;52.154;9.198;2023-02-19T13:11:32;101432.28;;;15.27;55.56
11114;BME280;5610;52.154;9.198;2023-02-19T13:14:23;101441.75;;;14.53;56.57
11114;BME280;5610;52.154;9.198;2023-02-19T13:17:20;101447.97;;;14.53;57.29
11114;BME280;5610;52.154;9.198;2023-02-19T13:20:17;101454.41;;;14.08;58.01
11114;BME280;5610;52.154;9.198;2023-02-19T13:23:07;101459.78;;;14.08;58.19
11114;BME280;5610;52.154;9.198;2023-02-19T13:29:45;101454.31;;;14.92;55.90
11114;BME280;5610;52.154;9.198;2023-02-19T13:32:50;101447.25;;;15.31;55.48
11114;BME280;5610;52.154;9.198;2023-02-19T13:36:00;101446.88;;;16.74;52.38
11114;BME280;5610;52.154;9.198;2023-02-19T13:38:48;101438.94;;;18.44;49.51
11114;BME280;5610;52.154;9.198;2023-02-19T13:41:38;101435.91;;;17.70;50.68
11114;BME280;5610;52.154;9.198;2023-02-19T13:44:26;101422.59;;;16.98;50.88
11114;BME280;5610;52.154;9.198;2023-02-19T13:47:47;101422.44;;;16.64;50.45
11114;BME280;5610;52.154;9.198;2023-02-19T13:50:34;101424.28;;;16.27;52.51
11114;BME280;5610;52.154;9.198;2023-02-19T13:53:48;101418.56;;;15.82;54.18
11114;BME280;5610;52.154;9.198;2023-02-19T13:56:36;101421.03;;;15.47;54.38
11114;BME280;5610;52.154;9.198;2023-02-19T13:59:26;101423.81;;;15.33;54.74
11114;BME280;5610;52.154;9.198;2023-02-19T14:02:27;101423.50;;;15.37;54.89
11114;BME280;5610;52.154;9.198;2023-02-19T14:08:50;101446.47;;;15.16;54.74
11114;BME280;5610;52.154;9.198;2023-02-19T14:12:17;101438.25;;;15.05;55.73
11114;BME280;5610;52.154;9.198;2023-02-19T14:15:39;101449.59;;;14.83;55.22
11114;BME280;5610;52.154;9.198;2023-02-19T14:18:40;101439.81;;;14.55;56.17
11114;BME280;5610;52.154;9.198;2023-02-19T14:21:34;101447.53;;;14.18;56.01
11114;BME280;5610;52.154;9.198;2023-02-19T14:24:19;101448.78;;;13.98;57.93
11114;BME280;5610;52.154;9.198;2023-02-19T14:27:06;101451.84;;;13.78;59.83
11114;BME280;5610;52.154;9.198;2023-02-19T14:29:52;101454.09;;;13.41;59.99
11114;BME280;5610;52.154;9.198;2023-02-19T14:32:38;101450.81;;;13.06;60.85
11114;BME280;5610;52.154;9.198;2023-02-19T14:35:26;101465.81;;;13.69;60.86
11114;BME280;5610;52.154;9.198;2023-02-19T14:38:18;101465.47;;;14.59;58.83
11114;BME280;5610;52.154;9.198;2023-02-19T14:41:04;101468.66;;;16.22;53.87
11114;BME280;5610;52.154;9.198;2023-02-19T14:43:51;101464.97;;;17.89;50.92
11114;BME280;5610;52.154;9.198;2023-02-19T14:46:40;101463.25;;;18.98;48.58
11114;BME280;5610;52.154;9.198;2023-02-19T14:49:33;101458.22;;;19.88;45.80
11114;BME280;5610;52.154;9.198;2023-02-19T14:52:23;101470.91;;;19.14;47.39
11114;BME280;5610;52.154;9.198;2023-02-19T14:55:16;101476.50;;;18.24;48.28
11114;BME280;5610;52.154;9.198;2023-02-19T14:58:05;101474.94;;;17.42;50.10
11114;BME280;5610;52.154;9.198;2023-02-19T15:00:50;101478.56;;;16.58;51.96
11114;BME280;5610;52.154;9.198;2023-02-19T15:03:36;101462.88;;;15.89;54.81
11114;BME280;5610;52.154;9.198;2023-02-19T15:06:24;101458.13;;;15.15;54.83
11114;BME280;5610;52.154;9.198;2023-02-19T15:09:11;101452.88;;;14.47;57.33
11114;BME280;5610;52.154;9.198;2023-02-19T15:11:59;101454.03;;;14.00;58.47
11114;BME280;5610;52.154;9.198;2023-02-19T15:14:46;101440.41;;;13.46;60.42
11114;BME280;5610;52.154;9.198;2023-02-19T15:17:35;101441.91;;;13.22;61.53